sensor_id;sensor_type;location;lat;lon;timestamp;P1;durP1;ratioP1;P2;durP2;ratioP2
30605;SDS011;17371;51.328;3.860;2023-01-10T00:02:24;17.13;;;3.40;;
30605;SDS011;17371;51.328;3.860;2023-01-10T00:04:49;9.90;;;1.93;;
30605;SDS011;17371;51.328;3.860;2023-01-10T00:07:14;14.40;;;2.63;;
30605;SDS011;17371;51.328;3.860;2023-01-10T00:09:41;16.80;;;2.73;;
30605;SDS011;17371;51.328;3.860;2023-01-10T00:12:07;10.98;;;2.28;;
30605;SDS011;17371;51.328;3.860;2023-01-10T00:14:32;13.13;;;2.90;;
30605;SDS011;17371;51.328;3.860;2023-01-10T00:16:57;16.00;;;2.80;;
30605;SDS011;17371;51.328;3.860;2023-01-10T00:19:23;13.17;;;2.37;;
30605;SDS011;17371;51.328;3.860;2023-01-10T00:21:48;8.52;;;2.30;;
30605;SDS011;17371;51.328;3.860;2023-01-10T00:24:14;15.27;;;2.80;;
30605;SDS011;17371;51.328;3.860;2023-01-10T00:26:40;10.30;;;2.30;;
30605;SDS011;17371;51.328;3.860;2023-01-10T00:29:06;13.43;;;2.22;;
30605;SDS011;17371;51.328;3.860;2023-01-10T00:31:31;18.03;;;2.63;;
30605;SDS011;17371;51.328;3.860;2023-01-10T00:33:57;13.70;;;2.27;;
30605;SDS011;17371;51.328;3.860;2023-01-10T00:36:22;12.80;;;2.80;;
30605;SDS011;17371;51.328;3.860;2023-01-10T00:38:47;15.67;;;2.33;;
30605;SDS011;17371;51.328;3.860;2023-01-10T00:41:13;19.13;;;2.55;;
30605;SDS011;17371;51.328;3.860;2023-01-10T00:43:39;13.85;;;2.70;;
30605;SDS011;17371;51.328;3.860;2023-01-10T00:46:05;14.30;;;2.40;;
30605;SDS011;17371;51.328;3.860;2023-01-10T00:48:30;9.02;;;2.33;;
30605;SDS011;17371;51.328;3.860;2023-01-10T00:50:55;12.70;;;2.67;;
30605;SDS011;17371;51.328;3.860;2023-01-10T00:53:21;19.23;;;3.00;;
30605;SDS011;17371;51.328;3.860;2023-01-10T00:55:46;18.80;;;3.30;;
30605;SDS011;17371;51.328;3.860;2023-01-10T00:58:12;11.53;;;2.47;;
30605;SDS011;17371;51.328;3.860;2023-01-10T01:00:39;16.98;;;2.80;;
30605;SDS011;17371;51.328;3.860;2023-01-10T01:03:05;15.43;;;2.63;;
30605;SDS011;17371;51.328;3.860;2023-01-10T01:05:30;10.73;;;2.97;;
30605;SDS011;17371;51.328;3.860;2023-01-10T01:07:56;14.30;;;2.75;;
30605;SDS011;17371;51.328;3.860;2023-01-10T01:10:21;9.27;;;2.23;;
30605;SDS011;17371;51.328;3.860;2023-01-10T01:12:47;13.50;;;2.60;;
30605;SDS011;17371;51.328;3.860;2023-01-10T01:15:12;13.90;;;3.23;;
30605;SDS011;17371;51.328;3.860;2023-01-10T01:17:39;21.03;;;2.50;;
30605;SDS011;17371;51.328;3.860;2023-01-10T01:20:05;17.17;;;2.90;;
30605;SDS011;17371;51.328;3.860;2023-01-10T01:22:31;14.93;;;3.08;;
30605;SDS011;17371;51.328;3.860;2023-01-10T01:24:56;11.93;;;2.70;;
30605;SDS011;17371;51.328;3.860;2023-01-10T01:27:22;15.67;;;4.03;;
30605;SDS011;17371;51.328;3.860;2023-01-10T01:29:47;17.38;;;2.88;;
30605;SDS011;17371;51.328;3.860;2023-01-10T01:32:13;18.10;;;3.22;;
30605;SDS011;17371;51.328;3.860;2023-01-10T01:34:39;14.43;;;2.83;;
30605;SDS011;17371;51.328;3.860;2023-01-10T01:37:05;14.13;;;3.25;;
30605;SDS011;17371;51.328;3.860;2023-01-10T01:39:30;16.07;;;3.07;;
30605;SDS011;17371;51.328;3.860;2023-01-10T01:41:56;17.77;;;3.13;;
30605;SDS011;17371;51.328;3.860;2023-01-10T01:44:21;18.23;;;3.60;;
30605;SDS011;17371;51.328;3.860;2023-01-10T01:46:48;16.83;;;3.13;;
30605;SDS011;17371;51.328;3.860;2023-01-10T01:49:17;25.95;;;3.75;;
30605;SDS011;17371;51.328;3.860;2023-01-10T01:51:46;11.93;;;2.58;;
30605;SDS011;17371;51.328;3.860;2023-01-10T01:54:13;18.50;;;3.00;;
30605;SDS011;17371;51.328;3.860;2023-01-10T01:56:39;24.25;;;3.88;;
30605;SDS011;17371;51.328;3.860;2023-01-10T01:59:07;17.38;;;3.67;;
30605;SDS011;17371;51.328;3.860;2023-01-10T02:01:34;14.50;;;2.80;;
30605;SDS011;17371;51.328;3.860;2023-01-10T02:04:02;20.95;;;3.65;;
30605;SDS011;17371;51.328;3.860;2023-01-10T02:06:32;15.23;;;3.10;;
30605;SDS011;17371;51.328;3.860;2023-01-10T02:09:00;16.53;;;2.70;;
30605;SDS011;17371;51.328;3.860;2023-01-10T02:11:29;22.30;;;4.10;;
30605;SDS011;17371;51.328;3.860;2023-01-10T02:13:55;19.87;;;3.20;;
30605;SDS011;17371;51.328;3.860;2023-01-10T02:16:21;19.30;;;3.05;;
30605;SDS011;17371;51.328;3.860;2023-01-10T02:18:47;16.60;;;3.47;;
30605;SDS011;17371;51.328;3.860;2023-01-10T02:21:18;24.57;;;3.20;;
30605;SDS011;17371;51.328;3.860;2023-01-10T02:29:40;12.93;;;2.78;;
30605;SDS011;17371;51.328;3.860;2023-01-10T02:32:20;13.60;;;2.97;;
30605;SDS011;17371;51.328;3.860;2023-01-10T02:34:52;17.20;;;3.20;;
30605;SDS011;17371;51.328;3.860;2023-01-10T02:37:24;18.67;;;4.07;;
30605;SDS011;17371;51.328;3.860;2023-01-10T02:40:03;17.55;;;3.15;;
30605;SDS011;17371;51.328;3.860;2023-01-10T02:42:33;14.50;;;2.78;;
30605;SDS011;17371;51.328;3.860;2023-01-10T02:45:01;20.80;;;2.93;;
30605;SDS011;17371;51.328;3.860;2023-01-10T02:47:34;16.77;;;3.72;;
30605;SDS011;17371;51.328;3.860;2023-01-10T02:50:15;18.70;;;3.33;;
30605;SDS011;17371;51.328;3.860;2023-01-10T02:52:50;18.05;;;3.47;;
30605;SDS011;17371;51.328;3.860;2023-01-10T02:55:16;15.17;;;3.53;;
30605;SDS011;17371;51.328;3.860;2023-01-10T02:57:43;22.08;;;3.03;;
30605;SDS011;17371;51.328;3.860;2023-01-10T03:00:22;22.60;;;3.05;;
30605;SDS011;17371;51.328;3.860;2023-01-10T03:05:51;17.70;;;3.20;;
30605;SDS011;17371;51.328;3.860;2023-01-10T03:08:23;24.67;;;3.15;;
30605;SDS011;17371;51.328;3.860;2023-01-10T03:10:53;21.95;;;3.50;;
30605;SDS011;17371;51.328;3.860;2023-01-10T03:13:22;21.40;;;3.53;;
30605;SDS011;17371;51.328;3.860;2023-01-10T03:15:50;18.85;;;3.15;;
30605;SDS011;17371;51.328;3.860;2023-01-10T03:18:17;20.50;;;3.73;;
30605;SDS011;17371;51.328;3.860;2023-01-10T03:20:48;17.30;;;3.72;;
30605;SDS011;17371;51.328;3.860;2023-01-10T03:23:15;19.27;;;2.92;;
30605;SDS011;17371;51.328;3.860;2023-01-10T03:25:42;29.83;;;4.43;;
30605;SDS011;17371;51.328;3.860;2023-01-10T03:28:09;19.23;;;3.03;;
30605;SDS011;17371;51.328;3.860;2023-01-10T03:30:38;32.50;;;3.43;;
30605;SDS011;17371;51.328;3.860;2023-01-10T03:33:05;20.67;;;3.10;;
30605;SDS011;17371;51.328;3.860;2023-01-10T03:35:33;21.58;;;2.60;;
30605;SDS011;17371;51.328;3.860;2023-01-10T03:38:06;17.88;;;2.97;;
30605;SDS011;17371;51.328;3.860;2023-01-10T03:40:40;20.25;;;3.47;;
30605;SDS011;17371;51.328;3.860;2023-01-10T03:43:08;23.70;;;3.70;;
30605;SDS011;17371;51.328;3.860;2023-01-10T03:45:39;18.55;;;2.85;;
30605;SDS011;17371;51.328;3.860;2023-01-10T03:48:07;21.35;;;3.45;;
30605;SDS011;17371;51.328;3.860;2023-01-10T03:50:34;23.02;;;3.30;;
30605;SDS011;17371;51.328;3.860;2023-01-10T03:53:01;15.98;;;3.13;;
30605;SDS011;17371;51.328;3.860;2023-01-10T03:55:28;25.03;;;3.30;;
30605;SDS011;17371;51.328;3.860;2023-01-10T03:57:54;34.20;;;3.70;;
30605;SDS011;17371;51.328;3.860;2023-01-10T04:00:19;17.20;;;2.93;;
30605;SDS011;17371;51.328;3.860;2023-01-10T04:02:45;24.40;;;3.90;;
30605;SDS011;17371;51.328;3.860;2023-01-10T04:05:10;22.33;;;4.00;;
30605;SDS011;17371;51.328;3.860;2023-01-10T04:07:36;22.77;;;3.28;;
30605;SDS011;17371;51.328;3.860;2023-01-10T04:10:01;28.87;;;3.53;;
30605;SDS011;17371;51.328;3.860;2023-01-10T04:12:28;24.47;;;3.33;;
30605;SDS011;17371;51.328;3.860;2023-01-10T04:14:53;29.17;;;4.95;;
30605;SDS011;17371;51.328;3.860;2023-01-10T04:17:19;19.63;;;3.63;;
30605;SDS011;17371;51.328;3.860;2023-01-10T04:19:44;25.40;;;3.40;;
30605;SDS011;17371;51.328;3.860;2023-01-10T04:22:10;27.97;;;3.40;;
30605;SDS011;17371;51.328;3.860;2023-01-10T04:24:36;22.63;;;3.25;;
30605;SDS011;17371;51.328;3.860;2023-01-10T04:27:02;19.67;;;3.90;;
30605;SDS011;17371;51.328;3.860;2023-01-10T04:29:29;21.88;;;3.60;;
30605;SDS011;17371;51.328;3.860;2023-01-10T04:31:54;24.67;;;3.60;;
30605;SDS011;17371;51.328;3.860;2023-01-10T04:34:19;23.67;;;3.57;;
30605;SDS011;17371;51.328;3.860;2023-01-10T04:36:45;23.87;;;3.77;;
30605;SDS011;17371;51.328;3.860;2023-01-10T04:39:10;18.35;;;3.92;;
30605;SDS011;17371;51.328;3.860;2023-01-10T04:41:36;37.15;;;4.70;;
30605;SDS011;17371;51.328;3.860;2023-01-10T04:44:01;32.47;;;4.67;;
30605;SDS011;17371;51.328;3.860;2023-01-10T04:46:28;20.53;;;3.70;;
30605;SDS011;17371;51.328;3.860;2023-01-10T04:48:54;23.48;;;3.35;;
30605;SDS011;17371;51.328;3.860;2023-01-10T04:51:19;26.53;;;3.60;;
30605;SDS011;17371;51.328;3.860;2023-01-10T04:53:44;23.13;;;3.53;;
30605;SDS011;17371;51.328;3.860;2023-01-10T04:56:14;23.90;;;3.90;;
30605;SDS011;17371;51.328;3.860;2023-01-10T04:58:40;21.77;;;3.58;;
30605;SDS011;17371;51.328;3.860;2023-01-10T05:01:07;24.20;;;3.10;;
30605;SDS011;17371;51.328;3.860;2023-01-10T05:03:34;34.55;;;3.70;;
30605;SDS011;17371;51.328;3.860;2023-01-10T05:06:01;34.05;;;3.58;;
30605;SDS011;17371;51.328;3.860;2023-01-10T05:08:26;33.43;;;4.10;;
30605;SDS011;17371;51.328;3.860;2023-01-10T05:10:52;18.17;;;3.40;;
30605;SDS011;17371;51.328;3.860;2023-01-10T05:13:17;32.13;;;4.45;;
30605;SDS011;17371;51.328;3.860;2023-01-10T05:15:43;19.97;;;3.60;;
30605;SDS011;17371;51.328;3.860;2023-01-10T05:18:08;28.93;;;3.53;;
30605;SDS011;17371;51.328;3.860;2023-01-10T05:20:35;18.43;;;3.60;;
30605;SDS011;17371;51.328;3.860;2023-01-10T05:23:00;27.88;;;3.40;;
30605;SDS011;17371;51.328;3.860;2023-01-10T05:25:25;33.90;;;3.63;;
30605;SDS011;17371;51.328;3.860;2023-01-10T05:27:51;25.67;;;3.70;;
30605;SDS011;17371;51.328;3.860;2023-01-10T05:30:16;19.03;;;3.30;;
30605;SDS011;17371;51.328;3.860;2023-01-10T05:32:42;29.10;;;4.32;;
30605;SDS011;17371;51.328;3.860;2023-01-10T05:35:08;21.37;;;3.50;;
30605;SDS011;17371;51.328;3.860;2023-01-10T05:37:34;29.80;;;3.87;;
30605;SDS011;17371;51.328;3.860;2023-01-10T05:40:00;23.40;;;3.60;;
30605;SDS011;17371;51.328;3.860;2023-01-10T05:42:25;30.27;;;4.00;;
30605;SDS011;17371;51.328;3.860;2023-01-10T05:44:51;33.15;;;3.85;;
30605;SDS011;17371;51.328;3.860;2023-01-10T05:47:16;30.20;;;4.30;;
30605;SDS011;17371;51.328;3.860;2023-01-10T05:49:41;27.60;;;4.10;;
30605;SDS011;17371;51.328;3.860;2023-01-10T05:52:07;20.03;;;3.40;;
30605;SDS011;17371;51.328;3.860;2023-01-10T05:54:33;35.70;;;4.07;;
30605;SDS011;17371;51.328;3.860;2023-01-10T05:56:59;24.63;;;4.20;;
30605;SDS011;17371;51.328;3.860;2023-01-10T05:59:24;30.37;;;4.00;;
30605;SDS011;17371;51.328;3.860;2023-01-10T06:01:50;28.93;;;4.77;;
30605;SDS011;17371;51.328;3.860;2023-01-10T06:04:15;25.87;;;3.60;;
30605;SDS011;17371;51.328;3.860;2023-01-10T06:06:40;22.47;;;3.67;;
30605;SDS011;17371;51.328;3.860;2023-01-10T06:09:06;18.35;;;3.53;;
30605;SDS011;17371;51.328;3.860;2023-01-10T06:11:33;17.88;;;3.95;;
30605;SDS011;17371;51.328;3.860;2023-01-10T06:13:58;30.35;;;3.88;;
30605;SDS011;17371;51.328;3.860;2023-01-10T06:16:24;24.53;;;3.33;;
30605;SDS011;17371;51.328;3.860;2023-01-10T06:18:49;17.27;;;2.70;;
30605;SDS011;17371;51.328;3.860;2023-01-10T06:21:14;25.20;;;3.63;;
30605;SDS011;17371;51.328;3.860;2023-01-10T06:23:40;30.85;;;4.38;;
30605;SDS011;17371;51.328;3.860;2023-01-10T06:26:05;33.30;;;3.58;;
30605;SDS011;17371;51.328;3.860;2023-01-10T06:28:32;24.20;;;4.30;;
30605;SDS011;17371;51.328;3.860;2023-01-10T06:30:57;29.90;;;4.28;;
30605;SDS011;17371;51.328;3.860;2023-01-10T06:33:23;31.67;;;4.17;;
30605;SDS011;17371;51.328;3.860;2023-01-10T06:35:48;25.67;;;3.93;;
30605;SDS011;17371;51.328;3.860;2023-01-10T06:38:14;26.83;;;4.17;;
30605;SDS011;17371;51.328;3.860;2023-01-10T06:40:39;27.13;;;4.63;;
30605;SDS011;17371;51.328;3.860;2023-01-10T06:43:05;30.00;;;3.58;;
30605;SDS011;17371;51.328;3.860;2023-01-10T06:45:32;24.90;;;4.33;;
30605;SDS011;17371;51.328;3.860;2023-01-10T06:47:57;43.80;;;4.45;;
30605;SDS011;17371;51.328;3.860;2023-01-10T06:50:23;29.23;;;4.60;;
30605;SDS011;17371;51.328;3.860;2023-01-10T06:52:53;28.77;;;4.70;;
30605;SDS011;17371;51.328;3.860;2023-01-10T06:55:19;23.33;;;4.40;;
30605;SDS011;17371;51.328;3.860;2023-01-10T06:57:44;22.30;;;3.88;;
30605;SDS011;17371;51.328;3.860;2023-01-10T07:00:10;22.25;;;4.70;;
30605;SDS011;17371;51.328;3.860;2023-01-10T07:02:38;34.27;;;4.97;;
30605;SDS011;17371;51.328;3.860;2023-01-10T07:05:03;28.20;;;5.50;;
30605;SDS011;17371;51.328;3.860;2023-01-10T07:07:29;29.42;;;5.15;;
30605;SDS011;17371;51.328;3.860;2023-01-10T07:09:54;30.30;;;4.83;;
30605;SDS011;17371;51.328;3.860;2023-01-10T07:12:20;27.47;;;4.10;;
30605;SDS011;17371;51.328;3.860;2023-01-10T07:14:45;28.63;;;5.70;;
30605;SDS011;17371;51.328;3.860;2023-01-10T07:17:10;36.63;;;4.40;;
30605;SDS011;17371;51.328;3.860;2023-01-10T07:19:37;25.38;;;3.08;;
30605;SDS011;17371;51.328;3.860;2023-01-10T07:22:02;34.88;;;5.40;;
30605;SDS011;17371;51.328;3.860;2023-01-10T07:24:28;27.43;;;4.47;;
30605;SDS011;17371;51.328;3.860;2023-01-10T07:26:53;33.72;;;4.15;;
30605;SDS011;17371;51.328;3.860;2023-01-10T07:29:19;22.25;;;4.20;;
30605;SDS011;17371;51.328;3.860;2023-01-10T07:31:44;27.73;;;4.77;;
30605;SDS011;17371;51.328;3.860;2023-01-10T07:34:10;31.50;;;4.30;;
30605;SDS011;17371;51.328;3.860;2023-01-10T07:36:36;29.03;;;4.13;;
30605;SDS011;17371;51.328;3.860;2023-01-10T07:39:02;31.77;;;5.18;;
30605;SDS011;17371;51.328;3.860;2023-01-10T07:41:27;31.13;;;4.40;;
30605;SDS011;17371;51.328;3.860;2023-01-10T07:43:52;29.67;;;4.82;;
30605;SDS011;17371;51.328;3.860;2023-01-10T07:46:18;21.48;;;3.70;;
30605;SDS011;17371;51.328;3.860;2023-01-10T07:48:43;30.23;;;4.10;;
30605;SDS011;17371;51.328;3.860;2023-01-10T07:51:09;21.37;;;3.67;;
30605;SDS011;17371;51.328;3.860;2023-01-10T07:53:36;24.60;;;3.07;;
30605;SDS011;17371;51.328;3.860;2023-01-10T07:56:03;26.75;;;3.75;;
30605;SDS011;17371;51.328;3.860;2023-01-10T07:58:29;29.10;;;3.72;;
30605;SDS011;17371;51.328;3.860;2023-01-10T08:00:56;24.40;;;4.32;;
30605;SDS011;17371;51.328;3.860;2023-01-10T08:03:21;27.73;;;3.93;;
30605;SDS011;17371;51.328;3.860;2023-01-10T08:05:47;24.05;;;3.92;;
30605;SDS011;17371;51.328;3.860;2023-01-10T08:08:12;30.42;;;3.47;;
30605;SDS011;17371;51.328;3.860;2023-01-10T08:10:39;30.63;;;4.60;;
30605;SDS011;17371;51.328;3.860;2023-01-10T08:13:04;25.65;;;4.22;;
30605;SDS011;17371;51.328;3.860;2023-01-10T08:15:30;19.83;;;3.60;;
30605;SDS011;17371;51.328;3.860;2023-01-10T08:17:58;26.97;;;4.53;;
30605;SDS011;17371;51.328;3.860;2023-01-10T08:20:24;24.95;;;3.83;;
30605;SDS011;17371;51.328;3.860;2023-01-10T08:22:49;18.60;;;3.87;;
30605;SDS011;17371;51.328;3.860;2023-01-10T08:25:14;35.87;;;3.70;;
30605;SDS011;17371;51.328;3.860;2023-01-10T08:27:41;23.58;;;3.45;;
30605;SDS011;17371;51.328;3.860;2023-01-10T08:30:08;28.37;;;3.83;;
30605;SDS011;17371;51.328;3.860;2023-01-10T08:32:35;25.88;;;4.20;;
30605;SDS011;17371;51.328;3.860;2023-01-10T08:35:00;17.67;;;3.13;;
30605;SDS011;17371;51.328;3.860;2023-01-10T08:37:26;26.45;;;4.00;;
30605;SDS011;17371;51.328;3.860;2023-01-10T08:39:51;30.00;;;5.10;;
30605;SDS011;17371;51.328;3.860;2023-01-10T08:42:16;24.03;;;3.80;;
30605;SDS011;17371;51.328;3.860;2023-01-10T08:44:43;21.60;;;2.93;;
30605;SDS011;17371;51.328;3.860;2023-01-10T08:47:08;21.92;;;3.40;;
30605;SDS011;17371;51.328;3.860;2023-01-10T08:49:34;25.83;;;4.27;;
30605;SDS011;17371;51.328;3.860;2023-01-10T08:52:00;30.60;;;4.10;;
30605;SDS011;17371;51.328;3.860;2023-01-10T08:54:25;19.50;;;3.80;;
30605;SDS011;17371;51.328;3.860;2023-01-10T08:56:51;21.80;;;3.83;;
30605;SDS011;17371;51.328;3.860;2023-01-10T08:59:16;27.87;;;4.53;;
30605;SDS011;17371;51.328;3.860;2023-01-10T09:01:43;22.13;;;3.93;;
30605;SDS011;17371;51.328;3.860;2023-01-10T09:04:08;26.75;;;4.72;;
30605;SDS011;17371;51.328;3.860;2023-01-10T09:06:33;25.63;;;3.97;;
30605;SDS011;17371;51.328;3.860;2023-01-10T09:08:59;21.17;;;3.37;;
30605;SDS011;17371;51.328;3.860;2023-01-10T09:11:24;24.48;;;4.80;;
30605;SDS011;17371;51.328;3.860;2023-01-10T09:13:50;28.60;;;4.47;;
30605;SDS011;17371;51.328;3.860;2023-01-10T09:16:15;19.63;;;4.93;;
30605;SDS011;17371;51.328;3.860;2023-01-10T09:18:43;24.10;;;4.90;;
30605;SDS011;17371;51.328;3.860;2023-01-10T09:21:08;22.55;;;4.72;;
30605;SDS011;17371;51.328;3.860;2023-01-10T09:23:34;27.80;;;5.27;;
30605;SDS011;17371;51.328;3.860;2023-01-10T09:25:59;26.27;;;4.73;;
30605;SDS011;17371;51.328;3.860;2023-01-10T09:28:25;29.45;;;6.38;;
30605;SDS011;17371;51.328;3.860;2023-01-10T09:30:50;27.80;;;7.10;;
30605;SDS011;17371;51.328;3.860;2023-01-10T09:33:16;34.17;;;8.30;;
30605;SDS011;17371;51.328;3.860;2023-01-10T09:35:43;33.67;;;9.02;;
30605;SDS011;17371;51.328;3.860;2023-01-10T09:38:09;25.30;;;7.63;;
30605;SDS011;17371;51.328;3.860;2023-01-10T09:40:42;25.83;;;7.20;;
30605;SDS011;17371;51.328;3.860;2023-01-10T09:43:15;31.00;;;7.97;;
30605;SDS011;17371;51.328;3.860;2023-01-10T09:45:48;32.47;;;6.05;;
30605;SDS011;17371;51.328;3.860;2023-01-10T09:48:17;32.20;;;7.78;;
30605;SDS011;17371;51.328;3.860;2023-01-10T09:50:48;27.40;;;6.00;;
30605;SDS011;17371;51.328;3.860;2023-01-10T09:53:26;23.20;;;5.32;;
30605;SDS011;17371;51.328;3.860;2023-01-10T09:55:53;22.95;;;5.50;;
30605;SDS011;17371;51.328;3.860;2023-01-10T09:58:19;26.13;;;6.18;;
30605;SDS011;17371;51.328;3.860;2023-01-10T10:00:49;22.17;;;5.10;;
30605;SDS011;17371;51.328;3.860;2023-01-10T10:03:20;20.40;;;4.77;;
30605;SDS011;17371;51.328;3.860;2023-01-10T10:05:50;30.73;;;6.72;;
30605;SDS011;17371;51.328;3.860;2023-01-10T10:08:16;42.45;;;12.43;;
30605;SDS011;17371;51.328;3.860;2023-01-10T10:10:46;49.63;;;15.93;;
30605;SDS011;17371;51.328;3.860;2023-01-10T10:13:20;47.92;;;14.65;;
30605;SDS011;17371;51.328;3.860;2023-01-10T10:15:48;32.97;;;10.77;;
30605;SDS011;17371;51.328;3.860;2023-01-10T10:18:20;47.47;;;12.27;;
30605;SDS011;17371;51.328;3.860;2023-01-10T10:20:53;44.38;;;12.80;;
30605;SDS011;17371;51.328;3.860;2023-01-10T10:23:37;43.92;;;14.32;;
30605;SDS011;17371;51.328;3.860;2023-01-10T10:26:15;46.67;;;13.35;;
30605;SDS011;17371;51.328;3.860;2023-01-10T10:28:51;36.23;;;8.40;;
30605;SDS011;17371;51.328;3.860;2023-01-10T10:31:39;35.58;;;6.88;;
30605;SDS011;17371;51.328;3.860;2023-01-10T10:34:15;26.45;;;7.20;;
30605;SDS011;17371;51.328;3.860;2023-01-10T10:36:48;25.15;;;6.03;;
30605;SDS011;17371;51.328;3.860;2023-01-10T10:39:18;37.53;;;6.10;;
30605;SDS011;17371;51.328;3.860;2023-01-10T10:41:47;23.50;;;5.13;;
30605;SDS011;17371;51.328;3.860;2023-01-10T10:44:20;28.80;;;6.78;;
30605;SDS011;17371;51.328;3.860;2023-01-10T10:46:51;23.92;;;6.38;;
30605;SDS011;17371;51.328;3.860;2023-01-10T10:49:17;23.20;;;5.70;;
30605;SDS011;17371;51.328;3.860;2023-01-10T10:51:49;23.08;;;5.28;;
30605;SDS011;17371;51.328;3.860;2023-01-10T10:54:16;22.67;;;6.65;;
30605;SDS011;17371;51.328;3.860;2023-01-10T10:56:41;29.60;;;10.07;;
30605;SDS011;17371;51.328;3.860;2023-01-10T10:59:07;46.45;;;12.82;;
30605;SDS011;17371;51.328;3.860;2023-01-10T11:01:33;42.87;;;14.07;;
30605;SDS011;17371;51.328;3.860;2023-01-10T11:03:59;49.35;;;16.20;;
30605;SDS011;17371;51.328;3.860;2023-01-10T11:06:26;44.73;;;15.07;;
30605;SDS011;17371;51.328;3.860;2023-01-10T11:08:55;36.88;;;13.15;;
30605;SDS011;17371;51.328;3.860;2023-01-10T11:11:28;40.08;;;12.52;;
30605;SDS011;17371;51.328;3.860;2023-01-10T11:13:55;36.35;;;10.45;;
30605;SDS011;17371;51.328;3.860;2023-01-10T11:16:23;24.75;;;7.63;;
30605;SDS011;17371;51.328;3.860;2023-01-10T11:21:52;44.53;;;13.32;;
30605;SDS011;17371;51.328;3.860;2023-01-10T11:24:27;31.73;;;10.57;;
30605;SDS011;17371;51.328;3.860;2023-01-10T11:26:54;37.53;;;10.25;;
30605;SDS011;17371;51.328;3.860;2023-01-10T11:29:22;36.78;;;10.48;;
30605;SDS011;17371;51.328;3.860;2023-01-10T11:31:49;28.10;;;7.57;;
30605;SDS011;17371;51.328;3.860;2023-01-10T11:34:20;26.35;;;6.18;;
30605;SDS011;17371;51.328;3.860;2023-01-10T11:36:57;31.17;;;5.70;;
30605;SDS011;17371;51.328;3.860;2023-01-10T11:39:24;20.70;;;4.70;;
30605;SDS011;17371;51.328;3.860;2023-01-10T11:41:51;23.17;;;3.83;;
30605;SDS011;17371;51.328;3.860;2023-01-10T11:44:19;11.40;;;3.85;;
30605;SDS011;17371;51.328;3.860;2023-01-10T11:46:47;18.17;;;4.65;;
30605;SDS011;17371;51.328;3.860;2023-01-10T11:49:13;26.00;;;4.47;;
30605;SDS011;17371;51.328;3.860;2023-01-10T11:51:43;22.90;;;4.00;;
30605;SDS011;17371;51.328;3.860;2023-01-10T11:54:10;30.23;;;5.20;;
30605;SDS011;17371;51.328;3.860;2023-01-10T11:56:38;28.42;;;5.03;;
30605;SDS011;17371;51.328;3.860;2023-01-10T11:59:07;26.60;;;4.38;;
30605;SDS011;17371;51.328;3.860;2023-01-10T12:01:36;11.88;;;2.80;;
30605;SDS011;17371;51.328;3.860;2023-01-10T12:04:04;20.95;;;4.03;;
30605;SDS011;17371;51.328;3.860;2023-01-10T12:06:29;17.10;;;3.20;;
30605;SDS011;17371;51.328;3.860;2023-01-10T12:08:56;17.35;;;3.58;;
30605;SDS011;17371;51.328;3.860;2023-01-10T12:11:22;17.93;;;4.13;;
30605;SDS011;17371;51.328;3.860;2023-01-10T12:13:51;20.25;;;4.55;;
30605;SDS011;17371;51.328;3.860;2023-01-10T12:16:20;21.70;;;4.72;;
30605;SDS011;17371;51.328;3.860;2023-01-10T12:18:47;18.33;;;3.47;;
30605;SDS011;17371;51.328;3.860;2023-01-10T12:21:13;28.65;;;5.22;;
30605;SDS011;17371;51.328;3.860;2023-01-10T12:23:39;29.50;;;7.70;;
30605;SDS011;17371;51.328;3.860;2023-01-10T12:26:06;27.30;;;7.97;;
30605;SDS011;17371;51.328;3.860;2023-01-10T12:28:32;24.85;;;7.70;;
30605;SDS011;17371;51.328;3.860;2023-01-10T12:30:59;29.43;;;7.10;;
30605;SDS011;17371;51.328;3.860;2023-01-10T12:33:27;25.48;;;8.13;;
30605;SDS011;17371;51.328;3.860;2023-01-10T12:35:57;35.10;;;10.90;;
30605;SDS011;17371;51.328;3.860;2023-01-10T12:38:24;38.70;;;9.95;;
30605;SDS011;17371;51.328;3.860;2023-01-10T12:40:56;34.33;;;10.27;;
30605;SDS011;17371;51.328;3.860;2023-01-10T12:43:24;29.65;;;12.55;;
30605;SDS011;17371;51.328;3.860;2023-01-10T12:45:53;35.50;;;12.63;;
30605;SDS011;17371;51.328;3.860;2023-01-10T12:48:23;25.23;;;7.40;;
30605;SDS011;17371;51.328;3.860;2023-01-10T12:50:59;31.80;;;10.18;;
30605;SDS011;17371;51.328;3.860;2023-01-10T12:53:27;31.52;;;10.95;;
30605;SDS011;17371;51.328;3.860;2023-01-10T12:55:55;27.00;;;9.57;;
30605;SDS011;17371;51.328;3.860;2023-01-10T12:58:22;26.48;;;10.27;;
30605;SDS011;17371;51.328;3.860;2023-01-10T13:00:53;25.07;;;8.47;;
30605;SDS011;17371;51.328;3.860;2023-01-10T13:03:23;27.88;;;10.35;;
30605;SDS011;17371;51.328;3.860;2023-01-10T13:05:51;25.27;;;9.48;;
30605;SDS011;17371;51.328;3.860;2023-01-10T13:08:18;28.65;;;8.38;;
30605;SDS011;17371;51.328;3.860;2023-01-10T13:10:46;27.98;;;9.75;;
30605;SDS011;17371;51.328;3.860;2023-01-10T13:13:14;19.73;;;7.57;;
30605;SDS011;17371;51.328;3.860;2023-01-10T13:15:46;29.55;;;7.22;;
30605;SDS011;17371;51.328;3.860;2023-01-10T13:18:14;23.60;;;6.40;;
30605;SDS011;17371;51.328;3.860;2023-01-10T13:20:42;21.80;;;7.55;;
30605;SDS011;17371;51.328;3.860;2023-01-10T13:23:21;24.70;;;9.27;;
30605;SDS011;17371;51.328;3.860;2023-01-10T13:26:04;25.80;;;6.38;;
30605;SDS011;17371;51.328;3.860;2023-01-10T13:28:31;13.85;;;4.95;;
30605;SDS011;17371;51.328;3.860;2023-01-10T13:30:58;19.08;;;4.70;;
30605;SDS011;17371;51.328;3.860;2023-01-10T13:33:24;11.90;;;3.93;;
30605;SDS011;17371;51.328;3.860;2023-01-10T13:35:51;19.08;;;3.97;;
30605;SDS011;17371;51.328;3.860;2023-01-10T13:38:18;14.82;;;3.90;;
30605;SDS011;17371;51.328;3.860;2023-01-10T13:40:56;13.98;;;3.60;;
30605;SDS011;17371;51.328;3.860;2023-01-10T13:43:25;15.88;;;3.17;;
30605;SDS011;17371;51.328;3.860;2023-01-10T13:58:39;5.38;;;2.13;;
30605;SDS011;17371;51.328;3.860;2023-01-10T14:01:16;7.10;;;2.03;;
30605;SDS011;17371;51.328;3.860;2023-01-10T14:03:48;5.93;;;2.80;;
30605;SDS011;17371;51.328;3.860;2023-01-10T14:06:17;7.53;;;2.63;;
30605;SDS011;17371;51.328;3.860;2023-01-10T14:08:48;5.38;;;2.05;;
30605;SDS011;17371;51.328;3.860;2023-01-10T14:11:16;11.68;;;3.17;;
30605;SDS011;17371;51.328;3.860;2023-01-10T14:13:46;6.07;;;2.60;;
30605;SDS011;17371;51.328;3.860;2023-01-10T14:16:30;16.35;;;4.60;;
30605;SDS011;17371;51.328;3.860;2023-01-10T14:18:57;15.23;;;5.90;;
30605;SDS011;17371;51.328;3.860;2023-01-10T14:21:24;15.60;;;5.17;;
30605;SDS011;17371;51.328;3.860;2023-01-10T14:23:51;19.33;;;6.63;;
30605;SDS011;17371;51.328;3.860;2023-01-10T14:26:22;10.35;;;3.13;;
30605;SDS011;17371;51.328;3.860;2023-01-10T14:28:54;13.52;;;4.75;;
30605;SDS011;17371;51.328;3.860;2023-01-10T14:31:20;12.77;;;4.40;;
30605;SDS011;17371;51.328;3.860;2023-01-10T14:33:47;27.03;;;6.70;;
30605;SDS011;17371;51.328;3.860;2023-01-10T14:36:13;13.95;;;5.18;;
30605;SDS011;17371;51.328;3.860;2023-01-10T14:38:40;10.30;;;3.97;;
30605;SDS011;17371;51.328;3.860;2023-01-10T14:41:10;16.83;;;5.70;;
30605;SDS011;17371;51.328;3.860;2023-01-10T14:43:39;18.48;;;6.32;;
30605;SDS011;17371;51.328;3.860;2023-01-10T14:46:09;24.35;;;8.27;;
30605;SDS011;17371;51.328;3.860;2023-01-10T14:48:39;11.45;;;4.97;;
30605;SDS011;17371;51.328;3.860;2023-01-10T14:51:17;18.95;;;5.82;;
30605;SDS011;17371;51.328;3.860;2023-01-10T14:53:44;11.53;;;4.80;;
30605;SDS011;17371;51.328;3.860;2023-01-10T14:56:16;19.05;;;7.20;;
30605;SDS011;17371;51.328;3.860;2023-01-10T14:58:46;14.13;;;4.73;;
30605;SDS011;17371;51.328;3.860;2023-01-10T15:01:12;20.83;;;5.88;;